sensor_id;sensor_type;location;lat;lon;timestamp;P1;durP1;ratioP1;P2;durP2;ratioP2
6438;SDS011;3252;52.540;13.290;2023-05-17T00:01:46;7.40;;;2.40;;
6438;SDS011;3252;52.540;13.290;2023-05-17T00:03:48;7.50;;;2.30;;
6438;SDS011;3252;52.540;13.290;2023-05-17T00:05:54;10.27;;;2.70;;
6438;SDS011;3252;52.540;13.290;2023-05-17T00:07:57;9.53;;;2.50;;
6438;SDS011;3252;52.540;13.290;2023-05-17T00:09:59;7.73;;;2.50;;
6438;SDS011;3252;52.540;13.290;2023-05-17T00:12:01;8.23;;;2.60;;
6438;SDS011;3252;52.540;13.290;2023-05-17T00:14:04;7.90;;;2.67;;
6438;SDS011;3252;52.540;13.290;2023-05-17T00:16:06;12.83;;;3.13;;
6438;SDS011;3252;52.540;13.290;2023-05-17T00:18:09;8.97;;;2.57;;
6438;SDS011;3252;52.540;13.290;2023-05-17T00:20:11;10.50;;;2.80;;
6438;SDS011;3252;52.540;13.290;2023-05-17T00:22:15;9.37;;;2.77;;
6438;SDS011;3252;52.540;13.290;2023-05-17T00:24:17;12.00;;;3.00;;
6438;SDS011;3252;52.540;13.290;2023-05-17T00:26:20;11.23;;;3.03;;
6438;SDS011;3252;52.540;13.290;2023-05-17T00:28:22;8.03;;;2.87;;
6438;SDS011;3252;52.540;13.290;2023-05-17T00:30:24;12.20;;;3.07;;
6438;SDS011;3252;52.540;13.290;2023-05-17T00:32:26;8.30;;;2.90;;
6438;SDS011;3252;52.540;13.290;2023-05-17T00:34:29;8.27;;;2.70;;
6438;SDS011;3252;52.540;13.290;2023-05-17T00:36:31;11.13;;;3.30;;
6438;SDS011;3252;52.540;13.290;2023-05-17T00:38:37;10.53;;;3.10;;
6438;SDS011;3252;52.540;13.290;2023-05-17T00:40:39;10.83;;;3.30;;
6438;SDS011;3252;52.540;13.290;2023-05-17T00:42:41;16.13;;;3.47;;
6438;SDS011;3252;52.540;13.290;2023-05-17T00:44:44;10.67;;;2.87;;
6438;SDS011;3252;52.540;13.290;2023-05-17T00:46:46;13.47;;;3.30;;
6438;SDS011;3252;52.540;13.290;2023-05-17T00:48:49;14.23;;;3.60;;
6438;SDS011;3252;52.540;13.290;2023-05-17T00:50:52;10.87;;;3.37;;
6438;SDS011;3252;52.540;13.290;2023-05-17T00:52:55;17.70;;;3.30;;
6438;SDS011;3252;52.540;13.290;2023-05-17T00:54:59;12.07;;;3.40;;
6438;SDS011;3252;52.540;13.290;2023-05-17T00:57:01;12.53;;;3.73;;
6438;SDS011;3252;52.540;13.290;2023-05-17T00:59:08;15.57;;;3.63;;
6438;SDS011;3252;52.540;13.290;2023-05-17T01:01:12;11.53;;;3.57;;
6438;SDS011;3252;52.540;13.290;2023-05-17T01:03:18;11.83;;;3.40;;
6438;SDS011;3252;52.540;13.290;2023-05-17T01:05:21;13.90;;;3.43;;
6438;SDS011;3252;52.540;13.290;2023-05-17T01:07:24;12.30;;;3.73;;
6438;SDS011;3252;52.540;13.290;2023-05-17T01:09:26;11.80;;;3.60;;
6438;SDS011;3252;52.540;13.290;2023-05-17T01:11:33;15.43;;;3.90;;
6438;SDS011;3252;52.540;13.290;2023-05-17T01:13:45;9.77;;;3.17;;
6438;SDS011;3252;52.540;13.290;2023-05-17T01:15:55;18.17;;;3.60;;
6438;SDS011;3252;52.540;13.290;2023-05-17T01:18:19;10.37;;;3.80;;
6438;SDS011;3252;52.540;13.290;2023-05-17T01:20:27;11.33;;;3.30;;
6438;SDS011;3252;52.540;13.290;2023-05-17T01:22:35;9.97;;;3.40;;
6438;SDS011;3252;52.540;13.290;2023-05-17T01:24:47;15.57;;;3.60;;
6438;SDS011;3252;52.540;13.290;2023-05-17T01:27:01;13.17;;;3.50;;
6438;SDS011;3252;52.540;13.290;2023-05-17T01:29:06;16.83;;;4.07;;
6438;SDS011;3252;52.540;13.290;2023-05-17T01:31:10;13.07;;;4.23;;
6438;SDS011;3252;52.540;13.290;2023-05-17T01:33:13;16.20;;;4.10;;
6438;SDS011;3252;52.540;13.290;2023-05-17T01:35:16;13.83;;;3.90;;
6438;SDS011;3252;52.540;13.290;2023-05-17T01:37:18;14.30;;;3.80;;
6438;SDS011;3252;52.540;13.290;2023-05-17T01:39:20;17.93;;;4.20;;
6438;SDS011;3252;52.540;13.290;2023-05-17T01:41:25;16.60;;;4.20;;
6438;SDS011;3252;52.540;13.290;2023-05-17T01:43:34;16.60;;;4.40;;
6438;SDS011;3252;52.540;13.290;2023-05-17T01:45:43;14.83;;;4.00;;
6438;SDS011;3252;52.540;13.290;2023-05-17T01:47:57;15.30;;;4.50;;
6438;SDS011;3252;52.540;13.290;2023-05-17T01:50:09;17.00;;;4.33;;
6438;SDS011;3252;52.540;13.290;2023-05-17T01:52:15;13.80;;;4.23;;
6438;SDS011;3252;52.540;13.290;2023-05-17T01:54:27;18.30;;;4.43;;
6438;SDS011;3252;52.540;13.290;2023-05-17T01:56:33;18.93;;;4.43;;
6438;SDS011;3252;52.540;13.290;2023-05-17T01:58:42;16.40;;;4.20;;
6438;SDS011;3252;52.540;13.290;2023-05-17T02:00:48;14.50;;;3.83;;
6438;SDS011;3252;52.540;13.290;2023-05-17T02:02:53;11.27;;;3.50;;
6438;SDS011;3252;52.540;13.290;2023-05-17T02:04:55;12.80;;;3.50;;
6438;SDS011;3252;52.540;13.290;2023-05-17T02:06:58;15.27;;;4.47;;
6438;SDS011;3252;52.540;13.290;2023-05-17T02:09:01;18.50;;;4.80;;
6438;SDS011;3252;52.540;13.290;2023-05-17T02:11:04;15.03;;;3.73;;
6438;SDS011;3252;52.540;13.290;2023-05-17T02:13:07;13.53;;;4.00;;
6438;SDS011;3252;52.540;13.290;2023-05-17T02:15:11;15.13;;;3.93;;
6438;SDS011;3252;52.540;13.290;2023-05-17T02:17:16;21.30;;;4.23;;
6438;SDS011;3252;52.540;13.290;2023-05-17T02:19:18;12.47;;;4.33;;
6438;SDS011;3252;52.540;13.290;2023-05-17T02:21:20;11.83;;;3.83;;
6438;SDS011;3252;52.540;13.290;2023-05-17T02:23:23;14.57;;;4.20;;
6438;SDS011;3252;52.540;13.290;2023-05-17T02:25:26;17.60;;;4.37;;
6438;SDS011;3252;52.540;13.290;2023-05-17T02:27:28;15.73;;;4.23;;
6438;SDS011;3252;52.540;13.290;2023-05-17T02:29:31;16.53;;;4.20;;
6438;SDS011;3252;52.540;13.290;2023-05-17T02:31:34;15.17;;;4.50;;
6438;SDS011;3252;52.540;13.290;2023-05-17T02:33:37;16.37;;;4.43;;
6438;SDS011;3252;52.540;13.290;2023-05-17T02:35:39;13.97;;;4.47;;
6438;SDS011;3252;52.540;13.290;2023-05-17T02:37:41;14.27;;;3.43;;
6438;SDS011;3252;52.540;13.290;2023-05-17T02:39:46;13.47;;;4.07;;
6438;SDS011;3252;52.540;13.290;2023-05-17T02:41:48;16.40;;;4.30;;
6438;SDS011;3252;52.540;13.290;2023-05-17T02:43:51;18.10;;;4.50;;
6438;SDS011;3252;52.540;13.290;2023-05-17T02:45:53;14.13;;;4.30;;
6438;SDS011;3252;52.540;13.290;2023-05-17T02:47:57;13.67;;;4.50;;
6438;SDS011;3252;52.540;13.290;2023-05-17T02:50:00;15.93;;;3.77;;
6438;SDS011;3252;52.540;13.290;2023-05-17T02:52:04;15.67;;;4.30;;
6438;SDS011;3252;52.540;13.290;2023-05-17T02:54:07;21.00;;;4.57;;
6438;SDS011;3252;52.540;13.290;2023-05-17T02:56:09;15.03;;;4.67;;
6438;SDS011;3252;52.540;13.290;2023-05-17T02:58:12;18.97;;;4.83;;
6438;SDS011;3252;52.540;13.290;2023-05-17T03:00:17;15.30;;;4.43;;
6438;SDS011;3252;52.540;13.290;2023-05-17T03:02:20;19.53;;;5.07;;
6438;SDS011;3252;52.540;13.290;2023-05-17T03:04:24;18.20;;;4.83;;
6438;SDS011;3252;52.540;13.290;2023-05-17T03:06:26;13.43;;;4.43;;
6438;SDS011;3252;52.540;13.290;2023-05-17T03:08:29;20.20;;;4.87;;
6438;SDS011;3252;52.540;13.290;2023-05-17T03:10:33;11.80;;;4.37;;
6438;SDS011;3252;52.540;13.290;2023-05-17T03:12:35;16.90;;;5.07;;
6438;SDS011;3252;52.540;13.290;2023-05-17T03:14:38;17.50;;;4.63;;
6438;SDS011;3252;52.540;13.290;2023-05-17T03:16:40;16.87;;;5.23;;
6438;SDS011;3252;52.540;13.290;2023-05-17T03:18:43;14.60;;;4.33;;
6438;SDS011;3252;52.540;13.290;2023-05-17T03:20:47;14.07;;;4.50;;
6438;SDS011;3252;52.540;13.290;2023-05-17T03:22:51;18.57;;;4.73;;
6438;SDS011;3252;52.540;13.290;2023-05-17T03:24:54;14.00;;;4.30;;
6438;SDS011;3252;52.540;13.290;2023-05-17T03:26:56;17.57;;;4.70;;
6438;SDS011;3252;52.540;13.290;2023-05-17T03:28:59;16.17;;;4.50;;
6438;SDS011;3252;52.540;13.290;2023-05-17T03:31:01;13.80;;;5.03;;
6438;SDS011;3252;52.540;13.290;2023-05-17T03:33:06;21.57;;;4.47;;
6438;SDS011;3252;52.540;13.290;2023-05-17T03:35:08;16.90;;;5.00;;
6438;SDS011;3252;52.540;13.290;2023-05-17T03:37:14;14.50;;;4.47;;
6438;SDS011;3252;52.540;13.290;2023-05-17T03:39:17;16.33;;;5.03;;
6438;SDS011;3252;52.540;13.290;2023-05-17T03:41:19;19.73;;;4.97;;
6438;SDS011;3252;52.540;13.290;2023-05-17T03:43:21;14.47;;;4.43;;
6438;SDS011;3252;52.540;13.290;2023-05-17T03:45:25;12.40;;;4.47;;
6438;SDS011;3252;52.540;13.290;2023-05-17T03:47:27;15.07;;;4.93;;
6438;SDS011;3252;52.540;13.290;2023-05-17T03:49:30;18.90;;;4.80;;
6438;SDS011;3252;52.540;13.290;2023-05-17T03:51:32;14.73;;;4.83;;
6438;SDS011;3252;52.540;13.290;2023-05-17T03:53:36;18.13;;;4.80;;
6438;SDS011;3252;52.540;13.290;2023-05-17T03:55:42;16.73;;;4.90;;
6438;SDS011;3252;52.540;13.290;2023-05-17T03:57:45;13.63;;;4.57;;
6438;SDS011;3252;52.540;13.290;2023-05-17T03:59:47;16.43;;;4.37;;
6438;SDS011;3252;52.540;13.290;2023-05-17T04:01:50;15.37;;;5.50;;
6438;SDS011;3252;52.540;13.290;2023-05-17T04:03:53;15.33;;;4.23;;
6438;SDS011;3252;52.540;13.290;2023-05-17T04:05:59;18.30;;;5.30;;
6438;SDS011;3252;52.540;13.290;2023-05-17T04:08:05;13.37;;;4.50;;
6438;SDS011;3252;52.540;13.290;2023-05-17T04:10:09;18.90;;;4.67;;
6438;SDS011;3252;52.540;13.290;2023-05-17T04:12:11;14.37;;;5.23;;
6438;SDS011;3252;52.540;13.290;2023-05-17T04:14:14;20.03;;;5.53;;
6438;SDS011;3252;52.540;13.290;2023-05-17T04:16:18;19.47;;;5.73;;
6438;SDS011;3252;52.540;13.290;2023-05-17T04:18:21;15.10;;;4.67;;
6438;SDS011;3252;52.540;13.290;2023-05-17T04:20:23;15.47;;;4.40;;
6438;SDS011;3252;52.540;13.290;2023-05-17T04:22:25;22.40;;;6.00;;
6438;SDS011;3252;52.540;13.290;2023-05-17T04:24:28;21.90;;;5.73;;
6438;SDS011;3252;52.540;13.290;2023-05-17T04:26:32;17.87;;;5.63;;
6438;SDS011;3252;52.540;13.290;2023-05-17T04:28:35;15.77;;;5.13;;
6438;SDS011;3252;52.540;13.290;2023-05-17T04:30:40;20.60;;;5.97;;
6438;SDS011;3252;52.540;13.290;2023-05-17T04:32:43;25.03;;;7.13;;
6438;SDS011;3252;52.540;13.290;2023-05-17T04:34:45;13.50;;;5.03;;
6438;SDS011;3252;52.540;13.290;2023-05-17T04:36:48;19.63;;;5.20;;
6438;SDS011;3252;52.540;13.290;2023-05-17T04:38:50;20.17;;;6.07;;
6438;SDS011;3252;52.540;13.290;2023-05-17T04:41:00;16.47;;;5.17;;
6438;SDS011;3252;52.540;13.290;2023-05-17T04:43:05;19.50;;;5.70;;
6438;SDS011;3252;52.540;13.290;2023-05-17T04:45:08;20.53;;;5.03;;
6438;SDS011;3252;52.540;13.290;2023-05-17T04:47:11;18.97;;;5.03;;
6438;SDS011;3252;52.540;13.290;2023-05-17T04:49:13;18.93;;;5.73;;
6438;SDS011;3252;52.540;13.290;2023-05-17T04:51:17;19.87;;;5.20;;
6438;SDS011;3252;52.540;13.290;2023-05-17T04:53:20;19.33;;;5.27;;
6438;SDS011;3252;52.540;13.290;2023-05-17T04:55:23;15.90;;;4.60;;
6438;SDS011;3252;52.540;13.290;2023-05-17T04:57:26;25.30;;;8.70;;
6438;SDS011;3252;52.540;13.290;2023-05-17T04:59:33;17.43;;;5.50;;
6438;SDS011;3252;52.540;13.290;2023-05-17T05:01:35;17.10;;;5.07;;
6438;SDS011;3252;52.540;13.290;2023-05-17T05:03:39;19.97;;;5.40;;
6438;SDS011;3252;52.540;13.290;2023-05-17T05:05:42;16.40;;;5.67;;
6438;SDS011;3252;52.540;13.290;2023-05-17T05:07:47;22.40;;;5.87;;
6438;SDS011;3252;52.540;13.290;2023-05-17T05:09:50;17.13;;;5.57;;
6438;SDS011;3252;52.540;13.290;2023-05-17T05:11:56;21.07;;;5.33;;
6438;SDS011;3252;52.540;13.290;2023-05-17T05:13:59;23.17;;;4.63;;
6438;SDS011;3252;52.540;13.290;2023-05-17T05:16:03;15.60;;;4.77;;
6438;SDS011;3252;52.540;13.290;2023-05-17T05:18:06;17.70;;;4.80;;
6438;SDS011;3252;52.540;13.290;2023-05-17T05:20:09;13.80;;;4.77;;
6438;SDS011;3252;52.540;13.290;2023-05-17T05:22:12;18.97;;;4.80;;
6438;SDS011;3252;52.540;13.290;2023-05-17T05:24:15;22.33;;;4.97;;
6438;SDS011;3252;52.540;13.290;2023-05-17T05:26:17;13.27;;;4.97;;
6438;SDS011;3252;52.540;13.290;2023-05-17T05:28:19;23.83;;;5.07;;
6438;SDS011;3252;52.540;13.290;2023-05-17T05:30:22;19.20;;;5.30;;
6438;SDS011;3252;52.540;13.290;2023-05-17T05:32:29;21.00;;;5.37;;
6438;SDS011;3252;52.540;13.290;2023-05-17T05:34:32;22.00;;;4.93;;
6438;SDS011;3252;52.540;13.290;2023-05-17T05:36:34;19.93;;;5.30;;
6438;SDS011;3252;52.540;13.290;2023-05-17T05:38:37;17.27;;;5.27;;
6438;SDS011;3252;52.540;13.290;2023-05-17T05:40:40;18.03;;;4.80;;
6438;SDS011;3252;52.540;13.290;2023-05-17T05:42:43;20.73;;;4.80;;
6438;SDS011;3252;52.540;13.290;2023-05-17T05:44:45;18.30;;;4.67;;
6438;SDS011;3252;52.540;13.290;2023-05-17T05:46:48;16.93;;;4.43;;
6438;SDS011;3252;52.540;13.290;2023-05-17T05:48:52;25.53;;;5.17;;
6438;SDS011;3252;52.540;13.290;2023-05-17T05:50:55;29.53;;;5.07;;
6438;SDS011;3252;52.540;13.290;2023-05-17T05:52:57;97.03;;;9.47;;
6438;SDS011;3252;52.540;13.290;2023-05-17T05:55:01;39.03;;;6.63;;
6438;SDS011;3252;52.540;13.290;2023-05-17T05:57:03;20.17;;;4.97;;
6438;SDS011;3252;52.540;13.290;2023-05-17T05:59:05;22.30;;;4.83;;
6438;SDS011;3252;52.540;13.290;2023-05-17T06:01:08;22.80;;;6.23;;
6438;SDS011;3252;52.540;13.290;2023-05-17T06:03:10;25.43;;;4.37;;
6438;SDS011;3252;52.540;13.290;2023-05-17T06:05:14;22.10;;;4.90;;
6438;SDS011;3252;52.540;13.290;2023-05-17T06:07:16;16.70;;;4.33;;
6438;SDS011;3252;52.540;13.290;2023-05-17T06:09:19;23.53;;;4.47;;
6438;SDS011;3252;52.540;13.290;2023-05-17T06:11:21;19.37;;;4.50;;
6438;SDS011;3252;52.540;13.290;2023-05-17T06:13:24;27.67;;;4.70;;
6438;SDS011;3252;52.540;13.290;2023-05-17T06:15:26;25.73;;;4.13;;
6438;SDS011;3252;52.540;13.290;2023-05-17T06:17:29;13.43;;;3.83;;
6438;SDS011;3252;52.540;13.290;2023-05-17T06:19:31;21.90;;;4.33;;
6438;SDS011;3252;52.540;13.290;2023-05-17T06:21:34;17.17;;;3.33;;
6438;SDS011;3252;52.540;13.290;2023-05-17T06:23:37;17.63;;;4.07;;
6438;SDS011;3252;52.540;13.290;2023-05-17T06:25:39;16.30;;;4.13;;
6438;SDS011;3252;52.540;13.290;2023-05-17T06:27:42;19.80;;;4.27;;
6438;SDS011;3252;52.540;13.290;2023-05-17T06:29:44;17.87;;;3.90;;
6438;SDS011;3252;52.540;13.290;2023-05-17T06:31:46;25.37;;;3.83;;
6438;SDS011;3252;52.540;13.290;2023-05-17T06:33:49;22.40;;;4.00;;
6438;SDS011;3252;52.540;13.290;2023-05-17T06:35:51;18.97;;;3.60;;
6438;SDS011;3252;52.540;13.290;2023-05-17T06:37:54;27.20;;;3.90;;
6438;SDS011;3252;52.540;13.290;2023-05-17T06:40:00;15.57;;;3.07;;
6438;SDS011;3252;52.540;13.290;2023-05-17T06:42:04;14.33;;;3.57;;
6438;SDS011;3252;52.540;13.290;2023-05-17T06:44:09;15.33;;;3.80;;
6438;SDS011;3252;52.540;13.290;2023-05-17T06:46:11;18.20;;;3.67;;
6438;SDS011;3252;52.540;13.290;2023-05-17T06:48:14;17.20;;;3.73;;
6438;SDS011;3252;52.540;13.290;2023-05-17T06:50:16;12.67;;;3.70;;
6438;SDS011;3252;52.540;13.290;2023-05-17T06:52:18;17.50;;;3.60;;
6438;SDS011;3252;52.540;13.290;2023-05-17T06:54:21;11.80;;;3.33;;
6438;SDS011;3252;52.540;13.290;2023-05-17T06:56:24;15.67;;;3.50;;
6438;SDS011;3252;52.540;13.290;2023-05-17T06:58:26;13.90;;;3.27;;
6438;SDS011;3252;52.540;13.290;2023-05-17T07:00:28;17.50;;;3.60;;
6438;SDS011;3252;52.540;13.290;2023-05-17T07:02:31;18.77;;;4.07;;
6438;SDS011;3252;52.540;13.290;2023-05-17T07:04:33;16.27;;;3.10;;
6438;SDS011;3252;52.540;13.290;2023-05-17T07:06:36;16.50;;;3.93;;
6438;SDS011;3252;52.540;13.290;2023-05-17T07:08:38;20.23;;;4.50;;
6438;SDS011;3252;52.540;13.290;2023-05-17T07:10:41;16.67;;;4.30;;
6438;SDS011;3252;52.540;13.290;2023-05-17T07:12:44;25.57;;;4.20;;
6438;SDS011;3252;52.540;13.290;2023-05-17T07:14:46;14.13;;;3.47;;
6438;SDS011;3252;52.540;13.290;2023-05-17T07:16:48;16.67;;;3.93;;
6438;SDS011;3252;52.540;13.290;2023-05-17T07:18:50;14.27;;;3.87;;
6438;SDS011;3252;52.540;13.290;2023-05-17T07:20:53;15.70;;;4.10;;
6438;SDS011;3252;52.540;13.290;2023-05-17T07:22:55;20.27;;;4.10;;
6438;SDS011;3252;52.540;13.290;2023-05-17T07:24:58;27.40;;;4.40;;
6438;SDS011;3252;52.540;13.290;2023-05-17T07:27:01;23.07;;;3.33;;
6438;SDS011;3252;52.540;13.290;2023-05-17T07:29:03;12.03;;;3.47;;
6438;SDS011;3252;52.540;13.290;2023-05-17T07:31:06;14.53;;;3.40;;
6438;SDS011;3252;52.540;13.290;2023-05-17T07:33:08;12.20;;;3.47;;
6438;SDS011;3252;52.540;13.290;2023-05-17T07:35:10;16.10;;;3.40;;
6438;SDS011;3252;52.540;13.290;2023-05-17T07:37:13;17.50;;;3.50;;
6438;SDS011;3252;52.540;13.290;2023-05-17T07:39:15;14.50;;;3.43;;
6438;SDS011;3252;52.540;13.290;2023-05-17T07:41:17;19.13;;;3.23;;
6438;SDS011;3252;52.540;13.290;2023-05-17T07:43:23;17.63;;;3.70;;
6438;SDS011;3252;52.540;13.290;2023-05-17T07:45:25;15.60;;;3.87;;
6438;SDS011;3252;52.540;13.290;2023-05-17T07:47:27;12.87;;;3.60;;
6438;SDS011;3252;52.540;13.290;2023-05-17T07:49:30;12.57;;;3.40;;
6438;SDS011;3252;52.540;13.290;2023-05-17T07:51:32;15.33;;;3.57;;
6438;SDS011;3252;52.540;13.290;2023-05-17T07:53:35;12.73;;;3.50;;
6438;SDS011;3252;52.540;13.290;2023-05-17T07:55:37;17.73;;;3.50;;
6438;SDS011;3252;52.540;13.290;2023-05-17T07:57:40;14.97;;;4.30;;
6438;SDS011;3252;52.540;13.290;2023-05-17T07:59:44;19.37;;;3.80;;
6438;SDS011;3252;52.540;13.290;2023-05-17T08:01:47;16.67;;;3.63;;
6438;SDS011;3252;52.540;13.290;2023-05-17T08:03:50;21.50;;;5.37;;
6438;SDS011;3252;52.540;13.290;2023-05-17T08:05:53;24.10;;;4.00;;
6438;SDS011;3252;52.540;13.290;2023-05-17T08:07:56;20.37;;;6.20;;
6438;SDS011;3252;52.540;13.290;2023-05-17T08:09:59;12.03;;;2.90;;
6438;SDS011;3252;52.540;13.290;2023-05-17T08:12:03;27.93;;;3.63;;
6438;SDS011;3252;52.540;13.290;2023-05-17T08:14:06;14.53;;;3.50;;
6438;SDS011;3252;52.540;13.290;2023-05-17T08:16:10;13.83;;;3.43;;
6438;SDS011;3252;52.540;13.290;2023-05-17T08:18:13;15.80;;;3.73;;
6438;SDS011;3252;52.540;13.290;2023-05-17T08:20:15;15.67;;;3.80;;
6438;SDS011;3252;52.540;13.290;2023-05-17T08:22:18;14.43;;;4.10;;
6438;SDS011;3252;52.540;13.290;2023-05-17T08:24:21;19.87;;;4.83;;
6438;SDS011;3252;52.540;13.290;2023-05-17T08:26:23;15.07;;;3.40;;
6438;SDS011;3252;52.540;13.290;2023-05-17T08:28:25;15.53;;;3.43;;
6438;SDS011;3252;52.540;13.290;2023-05-17T08:30:27;23.83;;;3.87;;
6438;SDS011;3252;52.540;13.290;2023-05-17T08:32:31;16.13;;;3.87;;
6438;SDS011;3252;52.540;13.290;2023-05-17T08:34:33;29.60;;;4.07;;
6438;SDS011;3252;52.540;13.290;2023-05-17T08:36:35;20.23;;;4.03;;
6438;SDS011;3252;52.540;13.290;2023-05-17T08:38:38;18.40;;;3.90;;
6438;SDS011;3252;52.540;13.290;2023-05-17T08:40:40;15.80;;;3.27;;
6438;SDS011;3252;52.540;13.290;2023-05-17T08:42:42;16.60;;;3.40;;
6438;SDS011;3252;52.540;13.290;2023-05-17T08:44:45;20.07;;;4.23;;
6438;SDS011;3252;52.540;13.290;2023-05-17T08:46:47;20.50;;;3.70;;
6438;SDS011;3252;52.540;13.290;2023-05-17T08:48:54;21.00;;;3.93;;
6438;SDS011;3252;52.540;13.290;2023-05-17T08:50:59;20.40;;;3.90;;
6438;SDS011;3252;52.540;13.290;2023-05-17T08:53:02;17.87;;;3.57;;
6438;SDS011;3252;52.540;13.290;2023-05-17T08:55:06;17.90;;;4.10;;
6438;SDS011;3252;52.540;13.290;2023-05-17T08:57:09;18.60;;;4.33;;
6438;SDS011;3252;52.540;13.290;2023-05-17T08:59:13;15.17;;;3.47;;
6438;SDS011;3252;52.540;13.290;2023-05-17T09:01:15;15.40;;;3.50;;
6438;SDS011;3252;52.540;13.290;2023-05-17T09:03:18;28.33;;;4.63;;
6438;SDS011;3252;52.540;13.290;2023-05-17T09:05:24;14.07;;;4.10;;
6438;SDS011;3252;52.540;13.290;2023-05-17T09:07:26;18.57;;;3.83;;
6438;SDS011;3252;52.540;13.290;2023-05-17T09:09:28;14.40;;;3.60;;
6438;SDS011;3252;52.540;13.290;2023-05-17T09:11:31;14.03;;;3.97;;
6438;SDS011;3252;52.540;13.290;2023-05-17T09:13:34;10.40;;;3.50;;
6438;SDS011;3252;52.540;13.290;2023-05-17T09:15:37;15.37;;;4.57;;
6438;SDS011;3252;52.540;13.290;2023-05-17T09:17:45;17.57;;;5.90;;
6438;SDS011;3252;52.540;13.290;2023-05-17T09:19:52;35.10;;;10.27;;
6438;SDS011;3252;52.540;13.290;2023-05-17T09:21:56;22.93;;;6.30;;
6438;SDS011;3252;52.540;13.290;2023-05-17T09:24:01;34.40;;;12.77;;
6438;SDS011;3252;52.540;13.290;2023-05-17T09:26:04;24.93;;;6.93;;
6438;SDS011;3252;52.540;13.290;2023-05-17T09:28:07;31.47;;;8.47;;
6438;SDS011;3252;52.540;13.290;2023-05-17T09:30:11;49.40;;;11.77;;
6438;SDS011;3252;52.540;13.290;2023-05-17T09:32:14;18.50;;;4.67;;
6438;SDS011;3252;52.540;13.290;2023-05-17T09:34:17;43.17;;;6.40;;
6438;SDS011;3252;52.540;13.290;2023-05-17T09:36:20;28.90;;;5.28;;
6438;SDS011;3252;52.540;13.290;2023-05-17T09:38:25;21.30;;;4.72;;
6438;SDS011;3252;52.540;13.290;2023-05-17T09:40:28;12.93;;;3.70;;
6438;SDS011;3252;52.540;13.290;2023-05-17T09:42:30;14.38;;;4.00;;
6438;SDS011;3252;52.540;13.290;2023-05-17T09:44:46;16.40;;;3.60;;
6438;SDS011;3252;52.540;13.290;2023-05-17T09:46:50;15.93;;;3.58;;
6438;SDS011;3252;52.540;13.290;2023-05-17T09:48:52;13.00;;;3.78;;
6438;SDS011;3252;52.540;13.290;2023-05-17T09:50:55;19.23;;;3.47;;
6438;SDS011;3252;52.540;13.290;2023-05-17T09:52:57;16.23;;;3.42;;
6438;SDS011;3252;52.540;13.290;2023-05-17T09:55:01;13.85;;;3.45;;
6438;SDS011;3252;52.540;13.290;2023-05-17T09:57:03;17.33;;;3.85;;
6438;SDS011;3252;52.540;13.290;2023-05-17T09:59:12;13.47;;;3.67;;
6438;SDS011;3252;52.540;13.290;2023-05-17T10:01:15;14.43;;;3.60;;
6438;SDS011;3252;52.540;13.290;2023-05-17T10:03:18;13.37;;;3.70;;
6438;SDS011;3252;52.540;13.290;2023-05-17T10:05:20;19.83;;;4.40;;
6438;SDS011;3252;52.540;13.290;2023-05-17T10:07:23;20.57;;;3.83;;
6438;SDS011;3252;52.540;13.290;2023-05-17T10:09:28;17.43;;;3.23;;
6438;SDS011;3252;52.540;13.290;2023-05-17T10:11:36;18.23;;;6.67;;
6438;SDS011;3252;52.540;13.290;2023-05-17T10:13:41;22.43;;;5.53;;
6438;SDS011;3252;52.540;13.290;2023-05-17T10:15:47;22.93;;;4.70;;
6438;SDS011;3252;52.540;13.290;2023-05-17T10:17:50;43.70;;;11.53;;
6438;SDS011;3252;52.540;13.290;2023-05-17T10:19:52;27.40;;;6.23;;
6438;SDS011;3252;52.540;13.290;2023-05-17T10:21:55;17.40;;;4.43;;
6438;SDS011;3252;52.540;13.290;2023-05-17T10:26:53;11.70;;;3.10;;
6438;SDS011;3252;52.540;13.290;2023-05-17T10:28:56;9.30;;;3.00;;
6438;SDS011;3252;52.540;13.290;2023-05-17T10:31:01;18.10;;;3.83;;
6438;SDS011;3252;52.540;13.290;2023-05-17T10:33:04;10.47;;;3.13;;
6438;SDS011;3252;52.540;13.290;2023-05-17T10:35:08;12.47;;;3.50;;
6438;SDS011;3252;52.540;13.290;2023-05-17T10:37:14;16.10;;;3.97;;
6438;SDS011;3252;52.540;13.290;2023-05-17T10:39:19;12.00;;;3.43;;
6438;SDS011;3252;52.540;13.290;2023-05-17T10:41:23;14.43;;;3.70;;
6438;SDS011;3252;52.540;13.290;2023-05-17T10:43:30;15.07;;;3.93;;
6438;SDS011;3252;52.540;13.290;2023-05-17T10:45:34;12.27;;;3.63;;
6438;SDS011;3252;52.540;13.290;2023-05-17T10:47:38;18.93;;;3.93;;
6438;SDS011;3252;52.540;13.290;2023-05-17T10:49:42;14.77;;;3.43;;
6438;SDS011;3252;52.540;13.290;2023-05-17T10:51:47;22.53;;;5.07;;
6438;SDS011;3252;52.540;13.290;2023-05-17T10:54:07;20.03;;;3.80;;
6438;SDS011;3252;52.540;13.290;2023-05-17T10:56:12;10.45;;;3.33;;
6438;SDS011;3252;52.540;13.290;2023-05-17T10:58:15;17.90;;;4.50;;
6438;SDS011;3252;52.540;13.290;2023-05-17T11:00:20;16.97;;;5.53;;
6438;SDS011;3252;52.540;13.290;2023-05-17T11:02:29;13.10;;;3.47;;
6438;SDS011;3252;52.540;13.290;2023-05-17T11:04:33;15.67;;;3.20;;
6438;SDS011;3252;52.540;13.290;2023-05-17T11:06:36;20.80;;;3.53;;
6438;SDS011;3252;52.540;13.290;2023-05-17T11:08:45;13.00;;;3.40;;
6438;SDS011;3252;52.540;13.290;2023-05-17T11:11:07;16.03;;;3.20;;
6438;SDS011;3252;52.540;13.290;2023-05-17T11:13:21;15.03;;;3.03;;
6438;SDS011;3252;52.540;13.290;2023-05-17T11:15:31;19.40;;;3.50;;
6438;SDS011;3252;52.540;13.290;2023-05-17T11:17:34;12.67;;;3.20;;
6438;SDS011;3252;52.540;13.290;2023-05-17T11:19:37;12.60;;;3.30;;
6438;SDS011;3252;52.540;13.290;2023-05-17T11:21:45;12.27;;;3.40;;
6438;SDS011;3252;52.540;13.290;2023-05-17T11:23:52;16.70;;;3.30;;
6438;SDS011;3252;52.540;13.290;2023-05-17T11:25:56;10.47;;;2.90;;
6438;SDS011;3252;52.540;13.290;2023-05-17T11:28:16;12.90;;;3.10;;
6438;SDS011;3252;52.540;13.290;2023-05-17T11:30:20;18.47;;;3.30;;
6438;SDS011;3252;52.540;13.290;2023-05-17T11:32:27;12.60;;;3.27;;
6438;SDS011;3252;52.540;13.290;2023-05-17T11:34:32;7.93;;;2.73;;
6438;SDS011;3252;52.540;13.290;2023-05-17T11:36:47;19.40;;;3.10;;
6438;SDS011;3252;52.540;13.290;2023-05-17T11:41:15;15.80;;;3.30;;
6438;SDS011;3252;52.540;13.290;2023-05-17T11:43:19;14.97;;;3.40;;
6438;SDS011;3252;52.540;13.290;2023-05-17T11:45:22;9.97;;;2.87;;
6438;SDS011;3252;52.540;13.290;2023-05-17T11:47:25;11.27;;;2.70;;
6438;SDS011;3252;52.540;13.290;2023-05-17T11:49:29;15.10;;;2.90;;
6438;SDS011;3252;52.540;13.290;2023-05-17T11:51:33;14.13;;;3.13;;
6438;SDS011;3252;52.540;13.290;2023-05-17T11:53:35;18.83;;;3.50;;
6438;SDS011;3252;52.540;13.290;2023-05-17T11:55:39;12.77;;;3.10;;
6438;SDS011;3252;52.540;13.290;2023-05-17T11:57:42;12.13;;;3.50;;
6438;SDS011;3252;52.540;13.290;2023-05-17T11:59:45;13.23;;;3.10;;
6438;SDS011;3252;52.540;13.290;2023-05-17T12:01:48;14.50;;;4.10;;
6438;SDS011;3252;52.540;13.290;2023-05-17T12:03:55;15.20;;;3.40;;
6438;SDS011;3252;52.540;13.290;2023-05-17T12:06:03;12.70;;;2.87;;
6438;SDS011;3252;52.540;13.290;2023-05-17T12:08:06;29.23;;;3.73;;
6438;SDS011;3252;52.540;13.290;2023-05-17T12:10:11;8.27;;;2.73;;
6438;SDS011;3252;52.540;13.290;2023-05-17T12:12:13;11.47;;;3.10;;
6438;SDS011;3252;52.540;13.290;2023-05-17T12:14:17;8.23;;;2.73;;
6438;SDS011;3252;52.540;13.290;2023-05-17T12:16:20;11.17;;;2.90;;
6438;SDS011;3252;52.540;13.290;2023-05-17T12:18:32;17.83;;;3.40;;
6438;SDS011;3252;52.540;13.290;2023-05-17T12:20:39;16.40;;;3.60;;
6438;SDS011;3252;52.540;13.290;2023-05-17T12:22:54;11.93;;;3.10;;
6438;SDS011;3252;52.540;13.290;2023-05-17T12:24:56;13.23;;;4.13;;
6438;SDS011;3252;52.540;13.290;2023-05-17T12:26:58;12.03;;;2.70;;
6438;SDS011;3252;52.540;13.290;2023-05-17T12:29:00;12.77;;;3.10;;
6438;SDS011;3252;52.540;13.290;2023-05-17T12:31:03;15.07;;;2.90;;
6438;SDS011;3252;52.540;13.290;2023-05-17T12:33:08;10.53;;;3.00;;